createdAt,value
2019-01-06T00:00:00.797Z,82.17
2019-01-06T00:01:08.391Z,82.21
2019-01-06T00:02:14.970Z,82.17
2019-01-06T00:03:23.011Z,82.16
2019-01-06T00:04:30.562Z,82.16
2019-01-06T00:05:37.224Z,82.17
2019-01-06T00:06:44.461Z,82.17
2019-01-06T00:07:51.116Z,82.17
2019-01-06T00:08:58.188Z,82.19
2019-01-06T00:10:04.860Z,82.17
2019-01-06T00:11:11.517Z,82.18
2019-01-06T00:12:19.766Z,82.19
2019-01-06T00:13:26.156Z,82.19
2019-01-06T00:14:32.830Z,82.21
2019-01-06T00:15:39.792Z,82.22
2019-01-06T00:16:46.576Z,82.19
2019-01-06T00:17:53.711Z,82.15
2019-01-06T00:19:00.192Z,82.12
2019-01-06T00:21:12.706Z,82.10
2019-01-06T00:22:19.268Z,82.08
2019-01-06T00:24:36.994Z,82.05
2019-01-06T00:25:55.626Z,82.04
2019-01-06T00:27:02.434Z,81.98
2019-01-06T00:28:08.843Z,81.99
2019-01-06T00:29:15.910Z,81.98
2019-01-06T00:30:23.412Z,81.98
2019-01-06T00:31:29.872Z,81.96
2019-01-06T00:32:36.860Z,81.91
2019-01-06T00:33:43.492Z,81.88
2019-01-06T00:34:50.363Z,81.92
2019-01-06T00:35:57.749Z,81.92
2019-01-06T00:37:04.732Z,81.93
2019-01-06T00:38:11.577Z,81.90
2019-01-06T00:39:18.541Z,81.91
2019-01-06T00:40:25.316Z,81.88
2019-01-06T00:41:32.708Z,81.86
2019-01-06T00:42:39.588Z,81.83
2019-01-06T00:43:46.219Z,81.80
2019-01-06T00:44:52.983Z,81.79
2019-01-06T00:45:59.943Z,81.79
2019-01-06T00:47:07.153Z,81.76
2019-01-06T00:48:13.891Z,81.76
2019-01-06T00:49:20.840Z,81.71
2019-01-06T00:50:27.941Z,81.71
2019-01-06T00:52:43.356Z,81.68
2019-01-06T00:54:56.011Z,81.68
2019-01-06T00:56:02.533Z,81.64
2019-01-06T00:57:09.583Z,81.62
2019-01-06T00:58:16.326Z,81.61
2019-01-06T00:59:23.714Z,81.58
2019-01-06T01:00:30.366Z,81.56
2019-01-06T01:01:37.224Z,81.55
2019-01-06T01:02:44.226Z,81.55
2019-01-06T01:05:02.136Z,81.50
2019-01-06T01:06:08.901Z,81.48
2019-01-06T01:07:15.456Z,81.47
2019-01-06T01:08:22.324Z,81.46
2019-01-06T01:09:28.771Z,81.45
2019-01-06T01:10:36.139Z,81.44
2019-01-06T01:11:42.843Z,81.41
2019-01-06T01:12:49.651Z,81.41
2019-01-06T01:15:04.151Z,81.42
2019-01-06T01:16:11.005Z,81.33
2019-01-06T01:17:18.069Z,81.35
2019-01-06T01:18:25.153Z,81.36
2019-01-06T01:19:32.252Z,81.32
2019-01-06T01:20:39.291Z,81.30
2019-01-06T01:21:45.978Z,81.31
2019-01-06T01:24:03.192Z,81.33
2019-01-06T01:25:09.832Z,81.29
2019-01-06T01:26:16.880Z,81.29
2019-01-06T01:27:26.555Z,81.29
2019-01-06T01:28:34.119Z,81.29
2019-01-06T01:29:40.880Z,81.28
2019-01-06T01:30:47.867Z,81.29
2019-01-06T01:33:00.384Z,81.26
2019-01-06T01:34:07.541Z,81.21
2019-01-06T01:35:14.733Z,81.18
2019-01-06T01:36:28.965Z,81.20
2019-01-06T01:37:35.380Z,81.21
2019-01-06T01:38:44.952Z,81.21
2019-01-06T01:39:51.803Z,81.21
2019-01-06T01:40:59.079Z,81.21
2019-01-06T01:42:08.956Z,81.23
2019-01-06T01:43:16.112Z,81.23
2019-01-06T01:44:23.177Z,81.25
2019-01-06T01:45:29.524Z,81.23
2019-01-06T01:46:36.804Z,81.22
2019-01-06T01:47:43.300Z,81.22
2019-01-06T01:49:01.904Z,81.22
2019-01-06T01:50:08.771Z,81.22
2019-01-06T01:51:15.161Z,81.24
2019-01-06T01:52:23.237Z,81.25
2019-01-06T01:53:29.700Z,81.26
2019-01-06T01:55:45.060Z,81.26
2019-01-06T01:56:52.220Z,81.24
2019-01-06T01:57:58.607Z,81.25
2019-01-06T01:59:06.262Z,81.22
2019-01-06T02:01:20.627Z,81.23
2019-01-06T02:02:27.290Z,81.20
2019-01-06T02:03:33.980Z,81.14
2019-01-06T02:05:47.281Z,81.14
2019-01-06T02:06:54.528Z,81.08
2019-01-06T02:08:01.436Z,81.08
2019-01-06T02:09:08.464Z,81.09
2019-01-06T02:10:16.289Z,81.08
2019-01-06T02:11:23.332Z,81.08
2019-01-06T02:12:29.899Z,81.08
2019-01-06T02:13:37.000Z,81.11
2019-01-06T02:14:43.984Z,81.09
2019-01-06T02:15:50.607Z,81.11
2019-01-06T02:16:57.844Z,81.11
2019-01-06T02:18:04.665Z,81.11
2019-01-06T02:19:11.737Z,81.13
2019-01-06T02:20:18.907Z,81.16
2019-01-06T02:21:25.480Z,81.14
2019-01-06T02:22:32.753Z,81.17
2019-01-06T02:23:39.744Z,81.16
2019-01-06T02:24:46.163Z,81.19
2019-01-06T02:25:53.439Z,81.19
2019-01-06T02:27:00.412Z,81.19
2019-01-06T02:28:07.098Z,81.23
2019-01-06T02:29:14.120Z,81.24
2019-01-06T02:30:20.695Z,81.23
2019-01-06T02:31:27.608Z,81.29
2019-01-06T02:32:34.157Z,81.28
2019-01-06T02:34:48.214Z,81.29
2019-01-06T02:37:00.479Z,81.33
2019-01-06T02:38:07.373Z,81.34
2019-01-06T02:39:13.921Z,81.33
2019-01-06T02:40:21.588Z,81.35
2019-01-06T02:41:28.478Z,81.35
2019-01-06T02:43:40.771Z,81.40
2019-01-06T02:44:47.802Z,81.43
2019-01-06T02:45:54.388Z,81.43
2019-01-06T02:47:01.785Z,81.44
2019-01-06T02:48:08.436Z,81.45
2019-01-06T02:49:15.029Z,81.47
2019-01-06T02:50:22.179Z,81.47
2019-01-06T02:51:28.837Z,81.49
2019-01-06T02:52:36.050Z,81.47
2019-01-06T02:53:42.980Z,81.50
2019-01-06T02:54:49.968Z,81.51
2019-01-06T02:55:57.104Z,81.54
2019-01-06T02:57:03.903Z,81.58
2019-01-06T02:58:13.657Z,81.56
2019-01-06T02:59:20.813Z,81.60
2019-01-06T03:00:27.777Z,81.63
2019-01-06T03:01:34.439Z,81.64
2019-01-06T03:02:41.501Z,81.63
2019-01-06T03:03:47.875Z,81.66
2019-01-06T03:04:55.776Z,81.68
2019-01-06T03:06:02.523Z,81.69
2019-01-06T03:07:09.372Z,81.72
2019-01-06T03:08:16.568Z,81.71
2019-01-06T03:09:22.852Z,81.72
2019-01-06T03:10:30.318Z,81.76
2019-01-06T03:12:48.152Z,81.74
2019-01-06T03:13:55.295Z,81.78
2019-01-06T03:15:02.222Z,81.76
2019-01-06T03:16:09.239Z,81.77
2019-01-06T03:17:15.991Z,81.80
2019-01-06T03:18:23.169Z,81.77
2019-01-06T03:20:35.662Z,81.81
2019-01-06T03:21:41.942Z,81.82
2019-01-06T03:22:49.223Z,81.84
2019-01-06T03:23:55.776Z,81.86
2019-01-06T03:25:02.765Z,81.86
2019-01-06T03:26:09.932Z,81.88
2019-01-06T03:27:16.281Z,81.91
2019-01-06T03:28:24.076Z,81.91
2019-01-06T03:29:32.866Z,81.94
2019-01-06T03:30:48.460Z,81.96
2019-01-06T03:31:55.343Z,81.95
2019-01-06T03:33:01.876Z,81.99
2019-01-06T03:35:17.794Z,81.99
2019-01-06T03:36:24.738Z,82.04
2019-01-06T03:37:36.407Z,82.04
2019-01-06T03:38:43.409Z,82.02
2019-01-06T03:39:50.052Z,82.04
2019-01-06T03:40:57.580Z,82.03
2019-01-06T03:42:04.543Z,82.01
2019-01-06T03:43:11.160Z,82.01
2019-01-06T03:44:18.939Z,82.02
2019-01-06T03:45:27.333Z,82.04
2019-01-06T03:46:34.929Z,82.03
2019-01-06T03:47:46.711Z,82.04
2019-01-06T03:50:03.734Z,82.04
2019-01-06T03:51:09.942Z,82.02
2019-01-06T03:52:17.177Z,82.06
2019-01-06T03:54:30.784Z,82.05
2019-01-06T03:55:42.477Z,82.04
2019-01-06T03:56:49.233Z,82.04
2019-01-06T03:57:55.593Z,82.05
2019-01-06T04:00:08.504Z,82.06
2019-01-06T04:01:15.396Z,82.05
2019-01-06T04:02:22.241Z,82.07
2019-01-06T04:03:28.897Z,82.10
2019-01-06T04:04:41.948Z,82.10
2019-01-06T04:05:54.032Z,82.11
2019-01-06T04:07:00.673Z,82.13
2019-01-06T04:08:14.813Z,82.14
2019-01-06T04:09:28.429Z,82.14
2019-01-06T04:10:39.434Z,82.14
2019-01-06T04:11:46.013Z,82.14
2019-01-06T04:12:53.132Z,82.13
2019-01-06T04:13:59.992Z,82.16
2019-01-06T04:15:06.865Z,82.17
